Time,TemperatureF,DewpointF,PressureIn,WindDirection,WindDirectionDegrees,WindSpeedMPH,WindSpeedGustMPH,Humidity,HourlyPrecipIn,Conditions,Clouds,dailyrainin,SoftwareType,DateUTC
2013-01-17 00:04:00,-0.9,0.0,0.00,SW,224,0.0,0.0,0,0.00,CLR,FEW,0.00,WeatherDisplay:10.37,2013-01-17 08:04:00,
2013-01-17 00:09:00,-0.9,0.0,0.00,SW,224,0.6,1.2,0,0.00,CLR,FEW,0.00,WeatherDisplay:10.37,2013-01-17 08:09:00,
2013-01-17 00:14:00,-1.0,0.0,0.00,SW,224,0.0,0.0,0,0.00,CLR,FEW,0.00,WeatherDisplay:10.37,2013-01-17 08:14:00,
2013-01-17 00:19:00,-1.1,0.0,0.00,SW,224,0.0,0.0,0,0.00,CLR,FEW,0.00,WeatherDisplay:10.37,2013-01-17 08:19:00,
2013-01-17 00:24:00,-1.2,0.0,0.00,SW,224,0.0,0.0,0,0.00,CLR,FEW,0.00,WeatherDisplay:10.37,2013-01-17 08:24:00,
2013-01-17 00:29:00,-1.4,0.0,0.00,SW,226,0.0,0.0,0,0.00,CLR,FEW,0.00,WeatherDisplay:10.37,2013-01-17 08:29:00,
2013-01-17 00:34:00,-1.7,0.0,0.00,WSW,238,0.0,0.0,0,0.00,CLR,FEW,0.00,WeatherDisplay:10.37,2013-01-17 08:34:00,
2013-01-17 00:39:00,-1.9,0.0,0.00,WSW,237,0.0,0.0,0,0.00,CLR,FEW,0.00,WeatherDisplay:10.37,2013-01-17 08:39:00,
2013-01-17 00:44:00,-2.0,0.0,0.00,SW,231,0.0,0.0,0,0.00,CLR,FEW,0.00,WeatherDisplay:10.37,2013-01-17 08:44:00,
2013-01-17 00:49:00,-2.2,0.0,0.00,WSW,246,0.0,0.0,0,0.00,CLR,FEW,0.00,WeatherDisplay:10.37,2013-01-17 08:49:00,
2013-01-17 00:54:00,-2.4,0.0,0.00,SW,232,0.0,0.0,0,0.00,CLR,FEW,0.00,WeatherDisplay:10.37,2013-01-17 08:54:00,
2013-01-17 00:59:00,-2.4,0.0,0.00,SW,232,0.0,0.0,0,0.00,CLR,FEW,0.00,WeatherDisplay:10.37,2013-01-17 08:59:00,
2013-01-17 01:04:00,-2.6,0.0,0.00,SW,233,0.0,0.0,0,0.00,CLR,FEW,0.00,WeatherDisplay:10.37,2013-01-17 09:04:00,
2013-01-17 01:09:00,-2.6,0.0,0.00,WSW,237,0.0,0.0,0,0.00,CLR,FEW,0.00,WeatherDisplay:10.37,2013-01-17 09:09:00,
2013-01-17 01:14:00,-2.7,0.0,0.00,WSW,237,0.0,0.0,0,0.00,CLR,FEW,0.00,WeatherDisplay:10.37,2013-01-17 09:14:00,
2013-01-17 01:19:00,-2.9,0.0,0.00,WSW,245,1.4,3.5,0,0.00,CLR,FEW,0.00,WeatherDisplay:10.37,2013-01-17 09:19:00,
2013-01-17 01:24:00,-3.1,0.0,0.00,NW,305,0.0,0.0,0,0.00,CLR,FEW,0.00,WeatherDisplay:10.37,2013-01-17 09:24:00,
2013-01-17 01:29:00,-3.3,0.0,0.00,NW,313,0.0,0.0,0,0.00,CLR,FEW,0.00,WeatherDisplay:10.37,2013-01-17 09:29:00,
2013-01-17 01:34:00,-3.6,0.0,0.00,NW,325,0.0,0.0,0,0.00,CLR,FEW,0.00,WeatherDisplay:10.37,2013-01-17 09:34:00,
2013-01-17 01:39:00,-3.7,0.0,0.00,NW,323,0.0,0.0,0,0.00,CLR,FEW,0.00,WeatherDisplay:10.37,2013-01-17 09:39:00,
2013-01-17 01:44:00,-3.7,0.0,0.00,NW,324,0.0,0.0,0,0.00,CLR,FEW,0.00,WeatherDisplay:10.37,2013-01-17 09:44:00,
2013-01-17 01:49:00,-3.9,0.0,0.00,NNW,329,0.8,2.3,0,0.00,CLR,FEW,0.00,WeatherDisplay:10.37,2013-01-17 09:49:00,
2013-01-17 01:55:00,-4.0,0.0,0.00,NNW,331,0.0,1.2,0,0.00,CLR,FEW,0.00,WeatherDisplay:10.37,2013-01-17 09:55:00,
2013-01-17 02:00:00,-4.2,0.0,0.00,NNW,333,0.1,1.2,0,0.00,CLR,FEW,0.00,WeatherDisplay:10.37,2013-01-17 10:00:00,
2013-01-17 02:05:00,-4.4,0.0,0.00,NNW,329,0.0,0.0,0,0.00,CLR,FEW,0.00,WeatherDisplay:10.37,2013-01-17 10:05:00,
2013-01-17 02:10:00,-4.4,0.0,0.00,NNW,330,0.0,0.0,0,0.00,CLR,FEW,0.00,WeatherDisplay:10.37,2013-01-17 10:10:00,
2013-01-17 02:15:00,-4.4,0.0,0.00,NNW,330,0.0,0.0,0,0.00,CLR,FEW,0.00,WeatherDisplay:10.37,2013-01-17 10:15:00,
2013-01-17 02:20:00,-4.2,0.0,0.00,NNW,330,0.0,0.0,0,0.00,CLR,FEW,0.00,WeatherDisplay:10.37,2013-01-17 10:20:00,
2013-01-17 02:25:00,-4.2,0.0,0.00,NNW,327,0.0,0.0,0,0.00,CLR,FEW,0.00,WeatherDisplay:10.37,2013-01-17 10:25:00,
2013-01-17 02:30:00,-4.0,0.0,0.00,NW,323,0.0,0.0,0,0.00,CLR,FEW,0.00,WeatherDisplay:10.37,2013-01-17 10:30:00,
2013-01-17 02:35:00,-3.8,0.0,0.00,NW,325,1.7,2.3,0,0.00,CLR,FEW,0.00,WeatherDisplay:10.37,2013-01-17 10:35:00,
2013-01-17 02:40:00,-3.7,0.0,0.00,NW,324,2.1,3.0,0,0.00,CLR,FEW,0.00,WeatherDisplay:10.37,2013-01-17 10:40:00,
2013-01-17 02:45:00,-3.4,0.0,0.00,NW,316,1.1,3.5,0,0.00,CLR,FEW,0.00,WeatherDisplay:10.37,2013-01-17 10:45:00,
2013-01-17 02:50:00,-3.3,0.0,0.00,NW,314,0.0,0.0,0,0.00,CLR,FEW,0.00,WeatherDisplay:10.37,2013-01-17 10:50:00,
2013-01-17 02:55:00,-3.6,0.0,0.00,NW,314,2.0,2.3,0,0.00,CLR,FEW,0.00,WeatherDisplay:10.37,2013-01-17 10:55:00,
2013-01-17 03:00:00,-3.8,0.0,0.00,NW,311,1.1,2.3,0,0.00,CLR,FEW,0.00,WeatherDisplay:10.37,2013-01-17 11:00:00,
2013-01-17 03:05:00,-4.0,0.0,0.00,NW,315,0.0,0.0,0,0.00,CLR,FEW,0.00,WeatherDisplay:10.37,2013-01-17 11:05:00,
2013-01-17 03:10:00,-4.1,0.0,0.00,NW,315,0.0,0.0,0,0.00,CLR,FEW,0.00,WeatherDisplay:10.37,2013-01-17 11:10:00,
2013-01-17 03:15:00,-4.0,0.0,0.00,NW,315,0.5,2.3,0,0.00,CLR,FEW,0.00,WeatherDisplay:10.37,2013-01-17 11:15:00,
2013-01-17 03:20:00,-4.1,0.0,0.00,NW,313,0.0,0.0,0,0.00,CLR,FEW,0.00,WeatherDisplay:10.37,2013-01-17 11:20:00,
2013-01-17 03:25:00,-4.3,0.0,0.00,NW,321,0.3,1.2,0,0.00,CLR,FEW,0.00,WeatherDisplay:10.37,2013-01-17 11:25:00,
2013-01-17 03:30:00,-4.5,0.0,0.00,NW,326,0.1,1.2,0,0.00,CLR,FEW,0.00,WeatherDisplay:10.37,2013-01-17 11:30:00,
2013-01-17 03:35:00,-4.7,0.0,0.00,NW,324,0.0,0.0,0,0.00,CLR,FEW,0.00,WeatherDisplay:10.37,2013-01-17 11:35:00,
2013-01-17 03:40:00,-5.1,0.0,0.00,NW,315,0.0,1.2,0,0.00,CLR,FEW,0.00,WeatherDisplay:10.37,2013-01-17 11:40:00,
2013-01-17 03:45:00,-5.3,0.0,0.00,NW,324,0.0,0.0,0,0.00,CLR,FEW,0.00,WeatherDisplay:10.37,2013-01-17 11:45:00,
2013-01-17 03:50:00,-5.4,0.0,0.00,NW,319,0.0,0.0,0,0.00,CLR,FEW,0.00,WeatherDisplay:10.37,2013-01-17 11:50:00,
2013-01-17 03:55:00,-5.5,0.0,0.00,NW,317,0.0,0.0,0,0.00,CLR,FEW,0.00,WeatherDisplay:10.37,2013-01-17 11:55:00,
2013-01-17 04:00:00,-5.5,0.0,0.00,NW,316,0.0,0.0,0,0.00,CLR,FEW,0.00,WeatherDisplay:10.37,2013-01-17 12:00:00,
2013-01-17 04:05:00,-5.7,0.0,0.00,NW,317,0.0,0.0,0,0.00,CLR,FEW,0.00,WeatherDisplay:10.37,2013-01-17 12:05:00,
2013-01-17 04:10:00,-5.9,0.0,0.00,NW,315,0.0,0.0,0,0.00,CLR,FEW,0.00,WeatherDisplay:10.37,2013-01-17 12:10:00,
2013-01-17 04:15:00,-6.0,0.0,0.00,NW,315,0.0,0.0,0,0.00,CLR,FEW,0.00,WeatherDisplay:10.37,2013-01-17 12:15:00,
2013-01-17 04:20:00,-5.9,0.0,0.00,NW,314,0.0,0.0,0,0.00,CLR,FEW,0.00,WeatherDisplay:10.37,2013-01-17 12:20:00,
2013-01-17 04:25:00,-5.7,0.0,0.00,NW,311,0.0,0.0,0,0.00,CLR,FEW,0.00,WeatherDisplay:10.37,2013-01-17 12:25:00,
2013-01-17 04:30:00,-5.8,0.0,0.00,NW,312,0.0,0.0,0,0.00,CLR,FEW,0.00,WeatherDisplay:10.37,2013-01-17 12:30:00,
2013-01-17 04:35:00,-5.7,0.0,0.00,NW,314,0.0,0.0,0,0.00,CLR,FEW,0.00,WeatherDisplay:10.37,2013-01-17 12:35:00,
2013-01-17 04:40:00,-5.7,0.0,0.00,NW,314,1.3,2.3,0,0.00,CLR,FEW,0.00,WeatherDisplay:10.37,2013-01-17 12:40:00,
2013-01-17 04:45:00,-5.9,0.0,0.00,NW,312,1.2,2.3,0,0.00,CLR,FEW,0.00,WeatherDisplay:10.37,2013-01-17 12:45:00,
2013-01-17 04:50:00,-6.1,0.0,0.00,NW,308,0.7,1.2,0,0.00,CLR,FEW,0.00,WeatherDisplay:10.37,2013-01-17 12:50:00,
2013-01-17 04:55:00,-6.2,0.0,0.00,NW,310,0.0,0.0,0,0.00,CLR,FEW,0.00,WeatherDisplay:10.37,2013-01-17 12:55:00,
2013-01-17 05:00:00,-6.1,0.0,0.00,NW,309,0.0,0.0,0,0.00,CLR,FEW,0.00,WeatherDisplay:10.37,2013-01-17 13:00:00,
2013-01-17 05:05:00,-6.0,0.0,0.00,NW,309,1.1,2.3,0,0.00,CLR,FEW,0.00,WeatherDisplay:10.37,2013-01-17 13:05:00,
2013-01-17 05:10:00,-6.0,0.0,0.00,NW,308,1.5,2.3,0,0.00,CLR,FEW,0.00,WeatherDisplay:10.37,2013-01-17 13:10:00,
2013-01-17 05:15:00,-6.2,0.0,0.00,NW,307,0.0,1.2,0,0.00,CLR,FEW,0.00,WeatherDisplay:10.37,2013-01-17 13:15:00,
2013-01-17 05:20:00,-6.1,0.0,0.00,NW,309,0.0,0.0,0,0.00,CLR,FEW,0.00,WeatherDisplay:10.37,2013-01-17 13:20:00,
2013-01-17 05:25:00,-6.0,0.0,0.00,NW,309,0.3,1.2,0,0.00,CLR,FEW,0.00,WeatherDisplay:10.37,2013-01-17 13:25:00,
2013-01-17 05:30:00,-6.1,0.0,0.00,NW,313,0.0,0.0,0,0.00,CLR,FEW,0.00,WeatherDisplay:10.37,2013-01-17 13:30:00,
2013-01-17 05:35:00,-6.2,0.0,0.00,NW,312,0.0,0.0,0,0.00,CLR,FEW,0.00,WeatherDisplay:10.37,2013-01-17 13:35:00,
2013-01-17 05:40:00,-6.4,0.0,0.00,WNW,301,0.0,0.0,0,0.00,CLR,FEW,0.00,WeatherDisplay:10.37,2013-01-17 13:40:00,
2013-01-17 05:45:00,-6.2,0.0,0.00,WNW,299,0.9,1.2,0,0.00,CLR,FEW,0.00,WeatherDisplay:10.37,2013-01-17 13:45:00,
2013-01-17 05:50:00,-6.1,0.0,0.00,WNW,299,0.0,0.0,0,0.00,CLR,FEW,0.00,WeatherDisplay:10.37,2013-01-17 13:50:00,
2013-01-17 05:55:00,-6.1,0.0,0.00,WNW,298,0.0,0.0,0,0.00,CLR,FEW,0.00,WeatherDisplay:10.37,2013-01-17 13:55:00,
2013-01-17 06:00:00,-6.3,0.0,0.00,WNW,298,0.3,2.3,0,0.00,CLR,FEW,0.00,WeatherDisplay:10.37,2013-01-17 14:00:00,
2013-01-17 06:05:00,-6.4,0.0,0.00,WNW,300,1.6,2.3,0,0.00,CLR,FEW,0.00,WeatherDisplay:10.37,2013-01-17 14:05:00,
2013-01-17 06:10:00,-6.7,0.0,0.00,WNW,300,0.6,1.2,0,0.00,CLR,FEW,0.00,WeatherDisplay:10.37,2013-01-17 14:10:00,
2013-01-17 06:15:00,-7.1,0.0,0.00,WNW,300,0.0,0.0,0,0.00,CLR,FEW,0.00,WeatherDisplay:10.37,2013-01-17 14:15:00,
2013-01-17 06:20:00,-7.5,0.0,0.00,WNW,301,0.0,0.0,0,0.00,CLR,FEW,0.00,WeatherDisplay:10.37,2013-01-17 14:20:00,
2013-01-17 06:25:00,-7.5,0.0,0.00,WNW,301,1.0,2.3,0,0.00,CLR,FEW,0.00,WeatherDisplay:10.37,2013-01-17 14:25:00,
2013-01-17 06:30:00,-7.6,0.0,0.00,WNW,301,0.0,0.0,0,0.00,CLR,FEW,0.00,WeatherDisplay:10.37,2013-01-17 14:30:00,
2013-01-17 06:35:00,-7.6,0.0,0.00,WNW,299,0.6,1.0,0,0.00,CLR,FEW,0.00,WeatherDisplay:10.37,2013-01-17 14:35:00,
2013-01-17 06:40:00,-7.4,0.0,0.00,WNW,300,1.3,2.3,0,0.00,CLR,FEW,0.00,WeatherDisplay:10.37,2013-01-17 14:40:00,
2013-01-17 06:45:00,-7.4,0.0,0.00,WNW,301,0.0,0.0,0,0.00,CLR,FEW,0.00,WeatherDisplay:10.37,2013-01-17 14:45:00,
2013-01-17 06:50:00,-7.4,0.0,0.00,WNW,300,0.0,0.0,0,0.00,CLR,FEW,0.00,WeatherDisplay:10.37,2013-01-17 14:50:00,
2013-01-17 06:55:00,-7.2,0.0,0.00,WNW,298,0.0,0.0,0,0.00,CLR,FEW,0.00,WeatherDisplay:10.37,2013-01-17 14:55:00,
2013-01-17 07:00:00,-7.0,0.0,0.00,WNW,300,0.1,0.0,0,0.00,CLR,FEW,0.00,WeatherDisplay:10.37,2013-01-17 15:00:00,
2013-01-17 07:05:00,-7.0,0.0,0.00,WNW,300,1.3,2.3,0,0.00,CLR,FEW,0.00,WeatherDisplay:10.37,2013-01-17 15:05:00,
2013-01-17 07:10:00,-7.0,0.0,0.00,WNW,300,1.0,2.3,0,0.00,CLR,FEW,0.00,WeatherDisplay:10.37,2013-01-17 15:10:00,
2013-01-17 07:15:00,-7.0,0.0,0.00,WNW,299,2.4,4.0,0,0.00,CLR,FEW,0.00,WeatherDisplay:10.37,2013-01-17 15:15:00,
2013-01-17 07:20:00,-6.8,0.0,0.00,WNW,300,1.7,2.3,0,0.00,CLR,FEW,0.00,WeatherDisplay:10.37,2013-01-17 15:20:00,
2013-01-17 07:25:00,-6.6,0.0,0.00,WNW,299,0.8,1.2,0,0.00,CLR,FEW,0.00,WeatherDisplay:10.37,2013-01-17 15:25:00,
2013-01-17 07:30:00,-6.5,0.0,0.00,WNW,298,0.7,1.2,0,0.00,CLR,FEW,0.00,WeatherDisplay:10.37,2013-01-17 15:30:00,
2013-01-17 07:35:00,-6.6,0.0,0.00,WNW,298,0.6,1.2,0,0.00,CLR,FEW,0.00,WeatherDisplay:10.37,2013-01-17 15:35:00,
2013-01-17 07:40:00,-6.8,0.0,0.00,WNW,296,1.4,2.3,0,0.00,CLR,FEW,0.00,WeatherDisplay:10.37,2013-01-17 15:40:00,
2013-01-17 07:45:00,-7.1,0.0,0.00,WNW,295,0.2,1.2,0,0.00,CLR,FEW,0.00,WeatherDisplay:10.37,2013-01-17 15:45:00,
2013-01-17 07:50:00,-7.1,0.0,0.00,WNW,295,1.0,2.3,0,0.00,CLR,FEW,0.00,WeatherDisplay:10.37,2013-01-17 15:50:00,
2013-01-17 07:55:00,-7.2,0.0,0.00,WNW,295,0.0,1.2,0,0.00,CLR,FEW,0.00,WeatherDisplay:10.37,2013-01-17 15:55:00,
2013-01-17 08:00:00,-7.1,0.0,0.00,WNW,297,0.9,2.3,0,0.00,CLR,FEW,0.00,WeatherDisplay:10.37,2013-01-17 16:00:00,
2013-01-17 08:05:00,-7.0,0.0,0.00,WNW,300,0.0,0.0,0,0.00,CLR,FEW,0.00,WeatherDisplay:10.37,2013-01-17 16:05:00,
2013-01-17 08:10:00,-6.9,0.0,0.00,WNW,296,0.0,0.0,0,0.00,CLR,FEW,0.00,WeatherDisplay:10.37,2013-01-17 16:10:00,
2013-01-17 08:15:00,-6.5,0.0,0.00,WNW,299,0.0,0.0,0,0.00,CLR,FEW,0.00,WeatherDisplay:10.37,2013-01-17 16:15:00,
2013-01-17 08:21:00,-6.2,0.0,0.00,WNW,300,0.0,0.0,0,0.00,CLR,FEW,0.00,WeatherDisplay:10.37,2013-01-17 16:21:00,
2013-01-17 08:26:00,-5.9,0.0,0.00,SW,234,0.4,1.2,0,0.00,CLR,FEW,0.00,WeatherDisplay:10.37,2013-01-17 16:26:00,
2013-01-17 08:31:00,-5.6,0.0,0.00,West,278,0.0,0.0,0,0.00,CLR,FEW,0.00,WeatherDisplay:10.37,2013-01-17 16:31:00,
2013-01-17 08:36:00,-5.4,0.0,0.00,SW,228,0.9,1.2,0,0.00,CLR,FEW,0.00,WeatherDisplay:10.37,2013-01-17 16:36:00,
2013-01-17 08:41:00,-5.3,0.0,0.00,SW,227,0.9,1.2,0,0.00,CLR,FEW,0.00,WeatherDisplay:10.37,2013-01-17 16:41:00,
2013-01-17 08:46:00,-5.1,0.0,0.00,SW,231,0.0,0.0,0,0.00,CLR,FEW,0.00,WeatherDisplay:10.37,2013-01-17 16:46:00,
2013-01-17 08:51:00,-4.8,0.0,0.00,SW,230,1.5,2.0,0,0.00,CLR,FEW,0.00,WeatherDisplay:10.37,2013-01-17 16:51:00,
2013-01-17 08:56:00,-4.6,0.0,0.00,SW,229,1.5,2.0,0,0.00,CLR,FEW,0.00,WeatherDisplay:10.37,2013-01-17 16:56:00,
2013-01-17 09:01:00,-4.3,0.0,0.00,SW,230,1.8,2.3,0,0.00,CLR,FEW,0.00,WeatherDisplay:10.37,2013-01-17 17:01:00,
2013-01-17 09:06:00,-4.0,0.0,0.00,SW,229,1.7,2.3,0,0.00,CLR,FEW,0.00,WeatherDisplay:10.37,2013-01-17 17:06:00,
2013-01-17 09:11:00,-3.6,0.0,0.00,SW,229,0.8,1.2,0,0.00,CLR,FEW,0.00,WeatherDisplay:10.37,2013-01-17 17:11:00,
2013-01-17 09:16:00,-3.7,0.0,0.00,SW,233,0.2,2.3,0,0.00,CLR,FEW,0.00,WeatherDisplay:10.37,2013-01-17 17:16:00,
2013-01-17 09:21:00,-3.4,0.0,0.00,SW,228,0.0,0.0,0,0.00,CLR,FEW,0.00,WeatherDisplay:10.37,2013-01-17 17:21:00,
2013-01-17 09:26:00,-2.8,0.0,0.00,SW,224,0.0,0.0,0,0.00,CLR,FEW,0.00,WeatherDisplay:10.37,2013-01-17 17:26:00,
2013-01-17 09:31:00,-2.1,0.0,0.00,SW,223,1.3,2.3,0,0.00,CLR,FEW,0.00,WeatherDisplay:10.37,2013-01-17 17:31:00,
2013-01-17 09:36:00,-1.6,0.0,0.00,WSW,249,0.5,2.3,0,0.00,CLR,FEW,0.00,WeatherDisplay:10.37,2013-01-17 17:36:00,
2013-01-17 09:41:00,-0.9,0.0,0.00,West,280,0.1,1.2,0,0.00,CLR,FEW,0.00,WeatherDisplay:10.37,2013-01-17 17:41:00,
2013-01-17 09:46:00,-0.4,0.0,0.00,West,267,1.2,2.3,0,0.00,CLR,FEW,0.00,WeatherDisplay:10.37,2013-01-17 17:46:00,
2013-01-17 09:51:00,-0.1,0.0,0.00,WNW,289,2.1,3.0,0,0.00,CLR,FEW,0.00,WeatherDisplay:10.37,2013-01-17 17:51:00,
2013-01-17 09:56:00,-0.5,0.0,0.00,SW,236,1.2,2.3,0,0.00,CLR,FEW,0.00,WeatherDisplay:10.37,2013-01-17 17:56:00,
2013-01-17 10:01:00,-0.7,0.0,0.00,WSW,250,1.5,2.3,0,0.00,CLR,FEW,0.00,WeatherDisplay:10.37,2013-01-17 18:01:00,
2013-01-17 10:06:00,-0.5,0.0,0.00,SW,227,1.5,2.3,0,0.00,CLR,FEW,0.00,WeatherDisplay:10.37,2013-01-17 18:06:00,
2013-01-17 10:11:00,-0.2,0.0,0.00,SW,224,1.6,2.3,0,0.00,CLR,FEW,0.00,WeatherDisplay:10.37,2013-01-17 18:11:00,
2013-01-17 10:16:00,-0.1,0.0,0.00,SW,223,1.3,3.5,0,0.00,CLR,FEW,0.00,WeatherDisplay:10.37,2013-01-17 18:16:00,
2013-01-17 10:21:00,0.3,0.0,0.00,North,355,0.0,1.2,0,0.00,CLR,FEW,0.00,WeatherDisplay:10.37,2013-01-17 18:21:00,
2013-01-17 10:26:00,0.9,0.0,0.00,NNW,334,0.7,1.2,0,0.00,CLR,FEW,0.00,WeatherDisplay:10.37,2013-01-17 18:26:00,
2013-01-17 10:31:00,1.3,0.0,0.00,North,0,1.3,2.3,0,0.00,CLR,FEW,0.00,WeatherDisplay:10.37,2013-01-17 18:31:00,
2013-01-17 10:36:00,1.6,0.0,0.00,North,358,2.1,3.5,0,0.00,CLR,FEW,0.00,WeatherDisplay:10.37,2013-01-17 18:36:00,
2013-01-17 10:41:00,2.2,0.0,0.00,NNW,347,2.1,3.5,0,0.00,CLR,FEW,0.00,WeatherDisplay:10.37,2013-01-17 18:41:00,
2013-01-17 10:46:00,2.5,0.0,0.00,North,355,1.8,3.5,0,0.00,CLR,FEW,0.00,WeatherDisplay:10.37,2013-01-17 18:46:00,
2013-01-17 10:51:00,2.8,0.0,0.00,NNW,348,0.8,1.2,0,0.00,CLR,FEW,0.00,WeatherDisplay:10.37,2013-01-17 18:51:00,
2013-01-17 10:56:00,3.3,0.0,0.00,WSW,253,1.6,3.5,0,0.00,CLR,FEW,0.00,WeatherDisplay:10.37,2013-01-17 18:56:00,
2013-01-17 11:01:00,3.7,0.0,0.00,West,267,1.6,2.3,0,0.00,CLR,FEW,0.00,WeatherDisplay:10.37,2013-01-17 19:01:00,
2013-01-17 11:06:00,4.2,0.0,0.00,WSW,256,1.7,2.3,0,0.00,CLR,FEW,0.00,WeatherDisplay:10.37,2013-01-17 19:06:00,
2013-01-17 11:11:00,4.7,0.0,0.00,WSW,253,0.5,1.2,0,0.00,CLR,FEW,0.00,WeatherDisplay:10.37,2013-01-17 19:11:00,
2013-01-17 11:16:00,5.3,0.0,0.00,West,263,1.0,2.3,0,0.00,CLR,FEW,0.00,WeatherDisplay:10.37,2013-01-17 19:16:00,
2013-01-17 11:21:00,6.0,0.0,0.00,SW,231,0.0,1.2,0,0.00,CLR,FEW,0.00,WeatherDisplay:10.37,2013-01-17 19:21:00,
2013-01-17 11:26:00,6.6,0.0,0.00,WSW,237,0.3,1.2,0,0.00,CLR,FEW,0.00,WeatherDisplay:10.37,2013-01-17 19:26:00,
2013-01-17 11:31:00,7.2,0.0,0.00,SW,228,1.5,2.3,0,0.00,CLR,FEW,0.00,WeatherDisplay:10.37,2013-01-17 19:31:00,
2013-01-17 11:36:00,7.5,0.0,0.00,SW,228,0.7,1.2,0,0.00,CLR,FEW,0.00,WeatherDisplay:10.37,2013-01-17 19:36:00,
2013-01-17 11:41:00,7.7,0.0,0.00,SW,229,0.4,1.2,0,0.00,CLR,FEW,0.00,WeatherDisplay:10.37,2013-01-17 19:41:00,
2013-01-17 11:46:00,8.1,0.0,0.00,West,279,0.0,0.0,0,0.00,CLR,FEW,0.00,WeatherDisplay:10.37,2013-01-17 19:46:00,
2013-01-17 11:51:00,8.6,0.0,0.00,North,0,0.9,1.2,0,0.00,CLR,FEW,0.00,WeatherDisplay:10.37,2013-01-17 19:51:00,
2013-01-17 11:56:00,9.1,0.0,0.00,North,0,1.1,2.3,0,0.00,CLR,FEW,0.00,WeatherDisplay:10.37,2013-01-17 19:56:00,
2013-01-17 12:01:00,9.5,0.0,0.00,North,0,0.5,1.2,0,0.00,CLR,FEW,0.00,WeatherDisplay:10.37,2013-01-17 20:01:00,
2013-01-17 12:06:00,10.0,0.0,0.00,North,0,0.1,1.2,0,0.00,CLR,FEW,0.00,WeatherDisplay:10.37,2013-01-17 20:06:00,
2013-01-17 12:11:00,10.5,0.0,0.00,North,0,0.8,2.0,0,0.00,CLR,FEW,0.00,WeatherDisplay:10.37,2013-01-17 20:11:00,
2013-01-17 12:16:00,10.8,0.0,0.00,North,0,1.3,2.3,0,0.00,CLR,FEW,0.00,WeatherDisplay:10.37,2013-01-17 20:16:00,
2013-01-17 12:21:00,11.0,0.0,0.00,WSW,242,0.6,1.2,0,0.00,CLR,FEW,0.00,WeatherDisplay:10.37,2013-01-17 20:21:00,
2013-01-17 12:26:00,11.5,0.0,0.00,WSW,246,0.4,1.2,0,0.00,CLR,FEW,0.00,WeatherDisplay:10.37,2013-01-17 20:26:00,
2013-01-17 12:31:00,11.8,0.0,0.00,WSW,247,1.5,2.3,0,0.00,CLR,FEW,0.00,WeatherDisplay:10.37,2013-01-17 20:31:00,
2013-01-17 12:36:00,12.2,0.0,0.00,WSW,238,0.5,1.2,0,0.00,CLR,FEW,0.00,WeatherDisplay:10.37,2013-01-17 20:36:00,
2013-01-17 12:41:00,12.5,0.0,0.00,WSW,243,0.0,1.2,0,0.00,CLR,FEW,0.00,WeatherDisplay:10.37,2013-01-17 20:41:00,
2013-01-17 12:46:00,12.9,0.0,0.00,North,358,0.6,1.2,0,0.00,CLR,FEW,0.00,WeatherDisplay:10.37,2013-01-17 20:46:00,
2013-01-17 12:51:00,13.4,0.0,0.00,North,0,1.1,2.3,0,0.00,CLR,FEW,0.00,WeatherDisplay:10.37,2013-01-17 20:51:00,
2013-01-17 12:56:00,13.8,0.0,0.00,NW,322,0.7,1.2,0,0.00,CLR,FEW,0.00,WeatherDisplay:10.37,2013-01-17 20:56:00,
2013-01-17 13:01:00,14.1,0.0,0.00,WNW,301,1.6,2.3,0,0.00,CLR,FEW,0.00,WeatherDisplay:10.37,2013-01-17 21:01:00,
2013-01-17 13:06:00,14.4,0.0,0.00,West,277,0.8,2.3,0,0.00,CLR,FEW,0.00,WeatherDisplay:10.37,2013-01-17 21:06:00,
2013-01-17 13:11:00,14.7,0.0,0.00,West,275,1.2,2.3,0,0.00,CLR,FEW,0.00,WeatherDisplay:10.37,2013-01-17 21:11:00,
2013-01-17 13:16:00,14.9,0.0,0.00,West,278,0.0,0.0,0,0.00,CLR,FEW,0.00,WeatherDisplay:10.37,2013-01-17 21:16:00,
2013-01-17 13:21:00,15.1,0.0,0.00,WNW,284,0.6,1.2,0,0.00,CLR,FEW,0.00,WeatherDisplay:10.37,2013-01-17 21:21:00,
2013-01-17 13:26:00,15.3,0.0,0.00,SW,223,0.3,1.2,0,0.00,CLR,FEW,0.00,WeatherDisplay:10.37,2013-01-17 21:26:00,
2013-01-17 13:31:00,15.7,0.0,0.00,SW,223,0.5,1.2,0,0.00,CLR,FEW,0.00,WeatherDisplay:10.37,2013-01-17 21:31:00,
2013-01-17 13:36:00,16.0,0.0,0.00,SW,223,0.5,1.2,0,0.00,CLR,FEW,0.00,WeatherDisplay:10.37,2013-01-17 21:36:00,
2013-01-17 13:41:00,16.1,0.0,0.00,SW,223,0.4,1.2,0,0.00,CLR,FEW,0.00,WeatherDisplay:10.37,2013-01-17 21:41:00,
2013-01-17 13:46:00,16.3,0.0,0.00,SW,223,1.1,2.3,0,0.00,CLR,FEW,0.00,WeatherDisplay:10.37,2013-01-17 21:46:00,
2013-01-17 13:51:00,16.3,0.0,0.00,SW,224,2.3,3.5,0,0.00,CLR,FEW,0.00,WeatherDisplay:10.37,2013-01-17 21:51:00,
2013-01-17 13:56:00,16.1,0.0,0.00,WNW,291,1.4,2.3,0,0.00,CLR,FEW,0.00,WeatherDisplay:10.37,2013-01-17 21:56:00,
2013-01-17 14:01:00,16.0,0.0,0.00,NW,316,0.0,0.0,0,0.00,CLR,FEW,0.00,WeatherDisplay:10.37,2013-01-17 22:01:00,
2013-01-17 14:06:00,16.1,0.0,0.00,NW,314,0.3,1.2,0,0.00,CLR,FEW,0.00,WeatherDisplay:10.37,2013-01-17 22:06:00,
2013-01-17 14:11:00,16.3,0.0,0.00,NNW,343,1.2,2.3,0,0.00,CLR,FEW,0.00,WeatherDisplay:10.37,2013-01-17 22:11:00,
2013-01-17 14:16:00,16.4,0.0,0.00,WNW,297,0.7,1.2,0,0.00,CLR,FEW,0.00,WeatherDisplay:10.37,2013-01-17 22:16:00,
2013-01-17 14:21:00,16.6,0.0,0.00,WNW,303,1.0,2.3,0,0.00,CLR,FEW,0.00,WeatherDisplay:10.37,2013-01-17 22:21:00,
2013-01-17 14:26:00,16.8,0.0,0.00,NW,318,0.9,1.2,0,0.00,CLR,FEW,0.00,WeatherDisplay:10.37,2013-01-17 22:26:00,
2013-01-17 14:31:00,17.0,0.0,0.00,NW,313,1.0,2.0,0,0.00,CLR,FEW,0.00,WeatherDisplay:10.37,2013-01-17 22:31:00,
2013-01-17 14:36:00,17.0,0.0,0.00,NW,324,0.8,2.3,0,0.00,CLR,FEW,0.00,WeatherDisplay:10.37,2013-01-17 22:36:00,
2013-01-17 14:41:00,17.1,0.0,0.00,WSW,241,0.7,1.2,0,0.00,CLR,FEW,0.00,WeatherDisplay:10.37,2013-01-17 22:41:00,
2013-01-17 14:46:00,17.3,0.0,0.00,WSW,237,0.0,1.2,0,0.00,CLR,FEW,0.00,WeatherDisplay:10.37,2013-01-17 22:46:00,
2013-01-17 14:51:00,17.5,0.0,0.00,NW,311,0.0,0.0,0,0.00,CLR,FEW,0.00,WeatherDisplay:10.37,2013-01-17 22:51:00,
2013-01-17 14:56:00,17.6,0.0,0.00,WNW,301,0.0,0.0,0,0.00,CLR,FEW,0.00,WeatherDisplay:10.37,2013-01-17 22:56:00,
2013-01-17 15:01:00,17.8,0.0,0.00,WNW,300,0.2,1.0,0,0.00,CLR,FEW,0.00,WeatherDisplay:10.37,2013-01-17 23:01:00,
2013-01-17 15:06:00,17.8,0.0,0.00,NW,304,0.0,1.2,0,0.00,CLR,FEW,0.00,WeatherDisplay:10.37,2013-01-17 23:06:00,
2013-01-17 15:11:00,17.8,0.0,0.00,NW,305,0.9,2.3,0,0.00,CLR,FEW,0.00,WeatherDisplay:10.37,2013-01-17 23:11:00,
2013-01-17 15:16:00,17.8,0.0,0.00,NW,304,0.0,0.0,0,0.00,CLR,FEW,0.00,WeatherDisplay:10.37,2013-01-17 23:16:00,
2013-01-17 15:21:00,17.7,0.0,0.00,NW,305,0.0,0.0,0,0.00,CLR,FEW,0.00,WeatherDisplay:10.37,2013-01-17 23:21:00,
2013-01-17 15:26:00,17.7,0.0,0.00,NW,319,0.3,1.2,0,0.00,CLR,FEW,0.00,WeatherDisplay:10.37,2013-01-17 23:26:00,
2013-01-17 15:31:00,17.7,0.0,0.00,NW,326,0.2,1.0,0,0.00,CLR,FEW,0.00,WeatherDisplay:10.37,2013-01-17 23:31:00,
2013-01-17 15:36:00,17.7,0.0,0.00,SW,233,1.0,2.0,0,0.00,CLR,FEW,0.00,WeatherDisplay:10.37,2013-01-17 23:36:00,
2013-01-17 15:41:00,17.6,0.0,0.00,WSW,240,1.0,2.0,0,0.00,CLR,FEW,0.00,WeatherDisplay:10.37,2013-01-17 23:41:00,
2013-01-17 15:46:00,17.6,0.0,0.00,West,278,0.4,1.2,0,0.00,CLR,FEW,0.00,WeatherDisplay:10.37,2013-01-17 23:46:00,
2013-01-17 15:51:00,17.5,0.0,0.00,North,0,0.8,2.3,0,0.00,CLR,FEW,0.00,WeatherDisplay:10.37,2013-01-17 23:51:00,
2013-01-17 15:56:00,17.3,0.0,0.00,North,0,0.2,1.2,0,0.00,CLR,FEW,0.00,WeatherDisplay:10.37,2013-01-17 23:56:00,
2013-01-17 16:01:00,17.1,0.0,0.00,SW,235,0.0,1.2,0,0.00,CLR,FEW,0.00,WeatherDisplay:10.37,2013-01-18 00:01:00,
2013-01-17 16:06:00,16.9,0.0,0.00,SW,228,0.9,2.3,0,0.00,CLR,FEW,0.00,WeatherDisplay:10.37,2013-01-18 00:06:00,
2013-01-17 16:11:00,16.7,0.0,0.00,SW,234,0.6,1.2,0,0.00,CLR,FEW,0.00,WeatherDisplay:10.37,2013-01-18 00:11:00,
2013-01-17 16:16:00,16.3,0.0,0.00,North,0,1.7,2.3,0,0.00,CLR,FEW,0.00,WeatherDisplay:10.37,2013-01-18 00:16:00,
2013-01-17 16:21:00,16.0,0.0,0.00,NW,316,0.7,2.3,0,0.00,CLR,FEW,0.00,WeatherDisplay:10.37,2013-01-18 00:21:00,
2013-01-17 16:26:00,15.6,0.0,0.00,SW,232,0.9,2.3,0,0.00,CLR,FEW,0.00,WeatherDisplay:10.37,2013-01-18 00:26:00,
2013-01-17 16:31:00,15.4,0.0,0.00,SW,233,0.6,1.2,0,0.00,CLR,FEW,0.00,WeatherDisplay:10.37,2013-01-18 00:31:00,
2013-01-17 16:36:00,15.1,0.0,0.00,SW,235,0.0,0.0,0,0.00,CLR,FEW,0.00,WeatherDisplay:10.37,2013-01-18 00:36:00,
2013-01-17 16:41:00,14.8,0.0,0.00,SW,234,0.8,1.2,0,0.00,CLR,FEW,0.00,WeatherDisplay:10.37,2013-01-18 00:41:00,
2013-01-17 16:46:00,14.5,0.0,0.00,SW,233,1.0,2.3,0,0.00,CLR,FEW,0.00,WeatherDisplay:10.37,2013-01-18 00:46:00,
2013-01-17 16:51:00,14.0,0.0,0.00,SW,234,0.8,2.3,0,0.00,CLR,FEW,0.00,WeatherDisplay:10.37,2013-01-18 00:51:00,
2013-01-17 16:56:00,13.6,0.0,0.00,SW,235,0.1,2.3,0,0.00,CLR,FEW,0.00,WeatherDisplay:10.37,2013-01-18 00:56:00,
2013-01-17 17:01:00,13.4,0.0,0.00,SW,235,0.2,2.3,0,0.00,CLR,FEW,0.00,WeatherDisplay:10.37,2013-01-18 01:01:00,
2013-01-17 17:06:00,13.1,0.0,0.00,SW,234,0.7,2.3,0,0.00,CLR,FEW,0.00,WeatherDisplay:10.37,2013-01-18 01:06:00,
2013-01-17 17:11:00,12.9,0.0,0.00,SW,236,0.6,2.3,0,0.00,CLR,FEW,0.00,WeatherDisplay:10.37,2013-01-18 01:11:00,
2013-01-17 17:16:00,12.5,0.0,0.00,WSW,237,0.3,1.2,0,0.00,CLR,FEW,0.00,WeatherDisplay:10.37,2013-01-18 01:16:00,
2013-01-17 17:21:00,12.3,0.0,0.00,SW,234,0.1,1.2,0,0.00,CLR,FEW,0.00,WeatherDisplay:10.37,2013-01-18 01:21:00,
2013-01-17 17:26:00,12.1,0.0,0.00,SW,234,0.1,1.2,0,0.00,CLR,FEW,0.00,WeatherDisplay:10.37,2013-01-18 01:26:00,
2013-01-17 17:31:00,11.9,0.0,0.00,SW,235,0.9,3.0,0,0.00,CLR,FEW,0.00,WeatherDisplay:10.37,2013-01-18 01:31:00,
2013-01-17 17:36:00,11.5,0.0,0.00,SW,233,0.9,2.3,0,0.00,CLR,FEW,0.00,WeatherDisplay:10.37,2013-01-18 01:36:00,
2013-01-17 17:41:00,11.4,0.0,0.00,SW,236,0.0,0.0,0,0.00,CLR,FEW,0.00,WeatherDisplay:10.37,2013-01-18 01:41:00,
2013-01-17 17:46:00,11.2,0.0,0.00,SW,226,0.0,0.0,0,0.00,CLR,FEW,0.00,WeatherDisplay:10.37,2013-01-18 01:46:00,
2013-01-17 17:51:00,10.8,0.0,0.00,SW,224,0.0,0.0,0,0.00,CLR,FEW,0.00,WeatherDisplay:10.37,2013-01-18 01:51:00,
2013-01-17 17:56:00,9.8,0.0,0.00,SW,223,1.2,2.3,0,0.00,CLR,FEW,0.00,WeatherDisplay:10.37,2013-01-18 01:56:00,
2013-01-17 18:01:00,9.4,0.0,0.00,SW,223,1.0,1.2,0,0.00,CLR,FEW,0.00,WeatherDisplay:10.37,2013-01-18 02:01:00,
2013-01-17 18:06:00,8.7,0.0,0.00,SW,223,0.0,0.0,0,0.00,CLR,FEW,0.00,WeatherDisplay:10.37,2013-01-18 02:06:00,
2013-01-17 18:11:00,8.4,0.0,0.00,SW,223,0.6,1.2,0,0.00,CLR,FEW,0.00,WeatherDisplay:10.37,2013-01-18 02:11:00,
2013-01-17 18:16:00,8.3,0.0,0.00,SW,223,0.6,2.3,0,0.00,CLR,FEW,0.00,WeatherDisplay:10.37,2013-01-18 02:16:00,
2013-01-17 18:22:00,8.2,0.0,0.00,SW,223,1.4,2.3,0,0.00,CLR,FEW,0.00,WeatherDisplay:10.37,2013-01-18 02:22:00,
2013-01-17 18:27:00,8.2,0.0,0.00,SW,223,0.7,1.2,0,0.00,CLR,FEW,0.00,WeatherDisplay:10.37,2013-01-18 02:27:00,
2013-01-17 18:32:00,8.0,0.0,0.00,SW,223,0.2,2.3,0,0.00,CLR,FEW,0.00,WeatherDisplay:10.37,2013-01-18 02:32:00,
2013-01-17 18:37:00,7.7,0.0,0.00,SW,223,1.0,2.3,0,0.00,CLR,FEW,0.00,WeatherDisplay:10.37,2013-01-18 02:37:00,
2013-01-17 18:42:00,7.2,0.0,0.00,SW,223,1.2,3.5,0,0.00,CLR,FEW,0.00,WeatherDisplay:10.37,2013-01-18 02:42:00,
2013-01-17 18:47:00,7.0,0.0,0.00,SW,223,1.1,2.3,0,0.00,CLR,FEW,0.00,WeatherDisplay:10.37,2013-01-18 02:47:00,
2013-01-17 18:52:00,6.8,0.0,0.00,SW,223,1.2,2.0,0,0.00,CLR,FEW,0.00,WeatherDisplay:10.37,2013-01-18 02:52:00,
2013-01-17 18:57:00,6.8,0.0,0.00,SW,223,1.7,3.5,0,0.00,CLR,FEW,0.00,WeatherDisplay:10.37,2013-01-18 02:57:00,
2013-01-17 19:02:00,6.9,0.0,0.00,SW,223,1.5,2.3,0,0.00,CLR,FEW,0.00,WeatherDisplay:10.37,2013-01-18 03:02:00,
2013-01-17 19:07:00,6.8,0.0,0.00,SW,223,0.7,2.3,0,0.00,CLR,FEW,0.00,WeatherDisplay:10.37,2013-01-18 03:07:00,
2013-01-17 19:12:00,6.7,0.0,0.00,SW,223,1.3,2.3,0,0.00,CLR,FEW,0.00,WeatherDisplay:10.37,2013-01-18 03:12:00,
2013-01-17 19:17:00,6.6,0.0,0.00,SW,223,1.8,3.5,0,0.00,CLR,FEW,0.00,WeatherDisplay:10.37,2013-01-18 03:17:00,
2013-01-17 19:22:00,6.1,0.0,0.00,SW,223,0.7,2.3,0,0.00,CLR,FEW,0.00,WeatherDisplay:10.37,2013-01-18 03:22:00,
2013-01-17 19:27:00,5.8,0.0,0.00,SW,223,1.3,2.3,0,0.00,CLR,FEW,0.00,WeatherDisplay:10.37,2013-01-18 03:27:00,
2013-01-17 19:32:00,5.6,0.0,0.00,SW,223,2.2,3.5,0,0.00,CLR,FEW,0.00,WeatherDisplay:10.37,2013-01-18 03:32:00,
2013-01-17 19:37:00,5.4,0.0,0.00,SW,223,1.0,3.0,0,0.00,CLR,FEW,0.00,WeatherDisplay:10.37,2013-01-18 03:37:00,
2013-01-17 19:42:00,5.3,0.0,0.00,SW,223,1.0,3.0,0,0.00,CLR,FEW,0.00,WeatherDisplay:10.37,2013-01-18 03:42:00,
2013-01-17 19:47:00,5.2,0.0,0.00,SW,223,0.3,2.3,0,0.00,CLR,FEW,0.00,WeatherDisplay:10.37,2013-01-18 03:47:00,
2013-01-17 19:52:00,5.0,0.0,0.00,SW,223,0.0,0.0,0,0.00,CLR,FEW,0.00,WeatherDisplay:10.37,2013-01-18 03:52:00,
2013-01-17 19:57:00,4.7,0.0,0.00,SW,223,0.0,1.0,0,0.00,CLR,FEW,0.00,WeatherDisplay:10.37,2013-01-18 03:57:00,
2013-01-17 20:02:00,4.4,0.0,0.00,SW,223,0.0,1.0,0,0.00,CLR,FEW,0.00,WeatherDisplay:10.37,2013-01-18 04:02:00,
2013-01-17 20:07:00,4.1,0.0,0.00,SW,223,0.0,0.0,0,0.00,CLR,FEW,0.00,WeatherDisplay:10.37,2013-01-18 04:07:00,
2013-01-17 20:12:00,3.6,0.0,0.00,SW,223,1.0,2.0,0,0.00,CLR,FEW,0.00,WeatherDisplay:10.37,2013-01-18 04:12:00,
2013-01-17 20:17:00,3.0,0.0,0.00,SW,224,1.0,2.0,0,0.00,CLR,FEW,0.00,WeatherDisplay:10.37,2013-01-18 04:17:00,
2013-01-17 20:22:00,2.6,0.0,0.00,SW,234,0.8,2.3,0,0.00,CLR,FEW,0.00,WeatherDisplay:10.37,2013-01-18 04:22:00,
2013-01-17 20:27:00,2.6,0.0,0.00,SW,232,0.5,1.2,0,0.00,CLR,FEW,0.00,WeatherDisplay:10.37,2013-01-18 04:27:00,
2013-01-17 20:32:00,2.6,0.0,0.00,SW,232,0.7,1.2,0,0.00,CLR,FEW,0.00,WeatherDisplay:10.37,2013-01-18 04:32:00,
2013-01-17 20:37:00,2.7,0.0,0.00,SW,230,0.6,2.3,0,0.00,CLR,FEW,0.00,WeatherDisplay:10.37,2013-01-18 04:37:00,
2013-01-17 20:42:00,2.7,0.0,0.00,SW,229,1.0,3.0,0,0.00,CLR,FEW,0.00,WeatherDisplay:10.37,2013-01-18 04:42:00,
2013-01-17 20:47:00,2.6,0.0,0.00,SW,227,0.0,0.0,0,0.00,CLR,FEW,0.00,WeatherDisplay:10.37,2013-01-18 04:47:00,
2013-01-17 20:52:00,2.3,0.0,0.00,SW,230,0.0,0.0,0,0.00,CLR,FEW,0.00,WeatherDisplay:10.37,2013-01-18 04:52:00,
2013-01-17 20:57:00,2.2,0.0,0.00,SW,233,1.0,2.0,0,0.00,CLR,FEW,0.00,WeatherDisplay:10.37,2013-01-18 04:57:00,
2013-01-17 21:00:00,2.3,0.0,0.00,SW,235,0.5,2.3,0,0.00,CLR,FEW,0.00,WeatherDisplay:10.37,2013-01-18 05:00:00,
2013-01-17 21:01:00,2.2,0.0,0.00,SW,234,0.3,2.3,0,0.00,CLR,FEW,0.00,WeatherDisplay:10.37,2013-01-18 05:01:00,
2013-01-17 21:06:00,2.3,0.0,0.00,SW,229,0.0,0.0,0,0.00,CLR,FEW,0.00,WeatherDisplay:10.37,2013-01-18 05:06:00,
2013-01-17 21:11:00,2.3,0.0,0.00,SW,229,0.0,0.0,0,0.00,CLR,FEW,0.00,WeatherDisplay:10.37,2013-01-18 05:11:00,
2013-01-17 21:16:00,2.2,0.0,0.00,SW,228,1.1,2.3,0,0.00,CLR,FEW,0.00,WeatherDisplay:10.37,2013-01-18 05:16:00,
2013-01-17 21:21:00,2.1,0.0,0.00,SW,229,1.4,2.3,0,0.00,CLR,FEW,0.00,WeatherDisplay:10.37,2013-01-18 05:21:00,
2013-01-17 21:26:00,1.8,0.0,0.00,SW,230,0.0,0.0,0,0.00,CLR,FEW,0.00,WeatherDisplay:10.37,2013-01-18 05:26:00,
2013-01-17 21:31:00,1.7,0.0,0.00,WSW,237,0.0,0.0,0,0.00,CLR,FEW,0.00,WeatherDisplay:10.37,2013-01-18 05:31:00,
2013-01-17 21:36:00,1.8,0.0,0.00,SW,234,1.2,2.3,0,0.00,CLR,FEW,0.00,WeatherDisplay:10.37,2013-01-18 05:36:00,
2013-01-17 21:41:00,1.7,0.0,0.00,SW,233,0.0,0.0,0,0.00,CLR,FEW,0.00,WeatherDisplay:10.37,2013-01-18 05:41:00,
2013-01-17 21:46:00,1.6,0.0,0.00,SW,236,1.1,2.3,0,0.00,CLR,FEW,0.00,WeatherDisplay:10.37,2013-01-18 05:46:00,
2013-01-17 21:51:00,1.5,0.0,0.00,WSW,242,1.1,2.3,0,0.00,CLR,FEW,0.00,WeatherDisplay:10.37,2013-01-18 05:51:00,
2013-01-17 21:56:00,1.2,0.0,0.00,WSW,241,0.2,1.2,0,0.00,CLR,FEW,0.00,WeatherDisplay:10.37,2013-01-18 05:56:00,
2013-01-17 22:01:00,1.0,0.0,0.00,SW,234,0.4,1.2,0,0.00,CLR,FEW,0.00,WeatherDisplay:10.37,2013-01-18 06:01:00,
2013-01-17 22:06:00,0.9,0.0,0.00,SW,232,0.0,0.0,0,0.00,CLR,FEW,0.00,WeatherDisplay:10.37,2013-01-18 06:06:00,
2013-01-17 22:11:00,0.7,0.0,0.00,SW,231,1.7,3.5,0,0.00,CLR,FEW,0.00,WeatherDisplay:10.37,2013-01-18 06:11:00,
2013-01-17 22:16:00,0.2,0.0,0.00,SW,229,1.0,2.3,0,0.00,CLR,FEW,0.00,WeatherDisplay:10.37,2013-01-18 06:16:00,
2013-01-17 22:28:00,-0.1,0.0,0.00,SW,229,1.0,2.3,0,0.00,CLR,FEW,0.00,WeatherDisplay:10.37,2013-01-18 06:28:00,
2013-01-17 22:33:00,-0.6,0.0,0.00,WSW,242,1.3,2.3,0,0.00,CLR,FEW,0.00,WeatherDisplay:10.37,2013-01-18 06:33:00,
2013-01-17 22:38:00,-1.2,0.0,0.00,WSW,237,1.8,3.0,0,0.00,CLR,FEW,0.00,WeatherDisplay:10.37,2013-01-18 06:38:00,
2013-01-17 22:43:00,-1.5,0.0,0.00,SW,234,0.8,2.3,0,0.00,CLR,FEW,0.00,WeatherDisplay:10.37,2013-01-18 06:43:00,
2013-01-17 22:48:00,-1.5,0.0,0.00,SW,234,0.9,2.3,0,0.00,CLR,FEW,0.00,WeatherDisplay:10.37,2013-01-18 06:48:00,
2013-01-17 22:53:00,-1.4,0.0,0.00,SW,235,0.0,0.0,0,0.00,CLR,FEW,0.00,WeatherDisplay:10.37,2013-01-18 06:53:00,
2013-01-17 22:58:00,-1.3,0.0,0.00,WSW,237,0.5,1.2,0,0.00,CLR,FEW,0.00,WeatherDisplay:10.37,2013-01-18 06:58:00,
2013-01-17 23:03:00,-1.1,0.0,0.00,SW,223,1.0,2.3,0,0.00,CLR,FEW,0.00,WeatherDisplay:10.37,2013-01-18 07:03:00,
2013-01-17 23:08:00,-1.1,0.0,0.00,SW,224,0.0,1.2,0,0.00,CLR,FEW,0.00,WeatherDisplay:10.37,2013-01-18 07:08:00,
2013-01-17 23:13:00,-1.0,0.0,0.00,SW,223,0.9,2.3,0,0.00,CLR,FEW,0.00,WeatherDisplay:10.37,2013-01-18 07:13:00,
2013-01-17 23:18:00,-1.0,0.0,0.00,SW,223,0.9,2.0,0,0.00,CLR,FEW,0.00,WeatherDisplay:10.37,2013-01-18 07:18:00,
2013-01-17 23:23:00,-1.0,0.0,0.00,SW,223,1.7,3.0,0,0.00,CLR,FEW,0.00,WeatherDisplay:10.37,2013-01-18 07:23:00,
2013-01-17 23:28:00,-1.2,0.0,0.00,SW,223,1.1,2.3,0,0.00,CLR,FEW,0.00,WeatherDisplay:10.37,2013-01-18 07:28:00,
2013-01-17 23:33:00,-2.1,0.0,0.00,SW,224,1.4,3.5,0,0.00,CLR,FEW,0.00,WeatherDisplay:10.37,2013-01-18 07:33:00,
2013-01-17 23:38:00,-2.0,0.0,0.00,SW,224,1.3,2.3,0,0.00,CLR,FEW,0.00,WeatherDisplay:10.37,2013-01-18 07:38:00,
2013-01-17 23:43:00,-2.0,0.0,0.00,SW,224,0.0,0.0,0,0.00,CLR,FEW,0.00,WeatherDisplay:10.37,2013-01-18 07:43:00,
2013-01-17 23:48:00,-1.9,0.0,0.00,SW,224,1.1,2.3,0,0.00,CLR,FEW,0.00,WeatherDisplay:10.37,2013-01-18 07:48:00,
2013-01-17 23:53:00,-2.0,0.0,0.00,SW,224,0.0,0.0,0,0.00,CLR,FEW,0.00,WeatherDisplay:10.37,2013-01-18 07:53:00,
2013-01-17 23:58:00,-1.9,0.0,0.00,SW,224,1.4,2.3,0,0.00,CLR,FEW,0.00,WeatherDisplay:10.37,2013-01-18 07:58:00,